< < Back
Terminal Aerodrome Forecast


Current Version              Previous Versions:   1  2  3  4  5  6  7  8  9  

Terminal Aerodrome Forecast

244
FTUS42 KGSP 220500
TAFCLT
TAF
KCLT 220539Z 2206/2306 29003KT P6SM SCT120 BKN250
     FM221700 33006KT P6SM SCT060
     FM230100 30003KT P6SM BKN060=

Latest METAR

543
SAUS70 KWBC 220800 RRH
MTRCLT
METAR KCLT 220752Z 00000KT 10SM FEW110 OVC160 24/21 A3004 RMK AO2 SLP163
T02440206


USA.gov is the U.S. government's official web portal to all federal, state and local government web resources and services.